createdAt,value
2019-03-23T00:00:11.626Z,0
2019-03-23T00:00:37.739Z,0
2019-03-23T00:01:03.846Z,0
2019-03-23T00:01:29.989Z,0
2019-03-23T00:01:56.097Z,0
2019-03-23T00:02:22.206Z,0
2019-03-23T00:02:48.315Z,0
2019-03-23T00:03:14.449Z,0
2019-03-23T00:03:40.561Z,0
2019-03-23T00:04:06.693Z,0
2019-03-23T00:04:32.809Z,0
2019-03-23T00:04:58.917Z,0
2019-03-23T00:05:25.047Z,0
2019-03-23T00:05:51.159Z,0
2019-03-23T00:06:17.263Z,0
2019-03-23T00:06:45.357Z,0
2019-03-23T00:07:11.469Z,0
2019-03-23T00:07:37.693Z,0
2019-03-23T00:08:03.775Z,0
2019-03-23T00:08:29.915Z,0
2019-03-23T00:08:56.048Z,0
2019-03-23T00:09:22.165Z,0
2019-03-23T00:09:48.268Z,0
2019-03-23T00:10:14.474Z,0
2019-03-23T00:10:40.582Z,0
2019-03-23T00:11:06.693Z,0
2019-03-23T00:11:32.798Z,0
2019-03-23T00:11:58.910Z,0
2019-03-23T00:12:25.041Z,0
2019-03-23T00:12:51.145Z,0
2019-03-23T00:13:17.280Z,0
2019-03-23T00:13:43.394Z,0
2019-03-23T00:14:09.490Z,0
2019-03-23T00:14:35.598Z,0
2019-03-23T00:15:01.708Z,0
2019-03-23T00:15:27.809Z,0
2019-03-23T00:15:53.918Z,0
2019-03-23T00:16:20.029Z,0
2019-03-23T00:16:46.135Z,0
2019-03-23T00:17:12.273Z,0
2019-03-23T00:17:38.405Z,0
2019-03-23T00:18:04.549Z,0
2019-03-23T00:18:30.683Z,0
2019-03-23T00:18:56.795Z,0
2019-03-23T00:19:22.904Z,0
2019-03-23T00:19:49.049Z,0
2019-03-23T00:20:15.182Z,0
2019-03-23T00:20:41.319Z,0
2019-03-23T00:21:07.432Z,0
2019-03-23T00:21:33.539Z,0
2019-03-23T00:21:59.650Z,0
2019-03-23T00:22:25.761Z,0
2019-03-23T00:22:51.930Z,0
2019-03-23T00:23:18.031Z,0
2019-03-23T00:23:44.170Z,0
2019-03-23T00:24:10.283Z,0
2019-03-23T00:24:36.393Z,0
2019-03-23T00:25:02.522Z,0
2019-03-23T00:25:28.633Z,0
2019-03-23T00:25:54.747Z,0
2019-03-23T00:26:20.875Z,0
2019-03-23T00:26:46.985Z,0
2019-03-23T00:27:13.098Z,0
2019-03-23T00:27:39.208Z,0
2019-03-23T00:28:05.312Z,0
2019-03-23T00:28:31.417Z,0
2019-03-23T00:28:57.560Z,0
2019-03-23T00:29:23.701Z,0
2019-03-23T00:29:49.835Z,0
2019-03-23T00:30:16.079Z,0
2019-03-23T00:30:42.176Z,0
2019-03-23T00:31:08.290Z,0
2019-03-23T00:31:34.395Z,0
2019-03-23T00:32:00.506Z,0
2019-03-23T00:32:26.619Z,0
2019-03-23T00:32:52.724Z,0
2019-03-23T00:33:18.839Z,0
2019-03-23T00:33:44.943Z,0
2019-03-23T00:34:11.054Z,0
2019-03-23T00:34:37.165Z,0
2019-03-23T00:35:03.273Z,0
2019-03-23T00:35:29.406Z,0
2019-03-23T00:35:55.549Z,0
2019-03-23T00:36:21.683Z,0
2019-03-23T00:36:47.871Z,0
2019-03-23T00:37:13.982Z,0
2019-03-23T00:37:40.127Z,0
2019-03-23T00:38:06.241Z,0
2019-03-23T00:38:32.347Z,0
2019-03-23T00:38:58.452Z,0
2019-03-23T00:39:24.591Z,0
2019-03-23T00:39:50.697Z,0
2019-03-23T00:40:16.807Z,0
2019-03-23T00:40:42.909Z,0
2019-03-23T00:41:09.519Z,0
2019-03-23T00:41:35.625Z,0
2019-03-23T00:42:01.766Z,0
2019-03-23T00:42:27.877Z,0
2019-03-23T00:42:53.984Z,0
2019-03-23T00:43:20.097Z,0
2019-03-23T00:43:46.213Z,0
2019-03-23T00:44:12.778Z,0
2019-03-23T00:44:38.884Z,0
2019-03-23T00:45:04.998Z,0
2019-03-23T00:45:31.137Z,0
2019-03-23T00:45:57.243Z,0
2019-03-23T00:46:23.357Z,0
2019-03-23T00:46:49.467Z,0
2019-03-23T00:47:15.605Z,0
2019-03-23T00:47:41.713Z,0
2019-03-23T00:48:07.815Z,0
2019-03-23T00:48:33.986Z,0
2019-03-23T00:49:00.115Z,0
2019-03-23T00:49:26.232Z,0
2019-03-23T00:49:52.361Z,0
2019-03-23T00:50:18.475Z,0
2019-03-23T00:50:44.612Z,0
2019-03-23T00:51:10.782Z,0
2019-03-23T00:51:36.925Z,0
2019-03-23T00:52:03.040Z,0
2019-03-23T00:52:29.155Z,0
2019-03-23T00:52:55.330Z,0
2019-03-23T00:53:21.433Z,0
2019-03-23T00:53:47.538Z,0
2019-03-23T00:54:13.651Z,0
2019-03-23T00:54:39.760Z,0
2019-03-23T00:55:05.873Z,0
2019-03-23T00:55:31.984Z,0
2019-03-23T00:55:58.149Z,0
2019-03-23T00:56:24.253Z,0
2019-03-23T00:56:50.403Z,0
2019-03-23T00:57:16.506Z,0
2019-03-23T00:57:42.616Z,0
2019-03-23T00:58:08.726Z,0
2019-03-23T00:58:34.836Z,0
2019-03-23T00:59:00.949Z,0
2019-03-23T00:59:27.056Z,0
2019-03-23T00:59:53.161Z,0
2019-03-23T01:00:19.307Z,0
2019-03-23T01:00:45.413Z,0
2019-03-23T01:01:11.549Z,0
2019-03-23T01:01:37.660Z,0
2019-03-23T01:02:03.769Z,0
2019-03-23T01:02:29.909Z,0
2019-03-23T01:02:57.032Z,0
2019-03-23T01:03:23.173Z,0
2019-03-23T01:03:49.314Z,0
2019-03-23T01:04:15.446Z,0
2019-03-23T01:04:41.552Z,0
2019-03-23T01:05:07.688Z,0
2019-03-23T01:05:33.797Z,0
2019-03-23T01:05:59.900Z,0
2019-03-23T01:06:29.040Z,0
2019-03-23T01:06:56.166Z,0
2019-03-23T01:07:22.303Z,0
2019-03-23T01:07:48.410Z,0
2019-03-23T01:08:14.513Z,0
2019-03-23T01:08:40.624Z,0
2019-03-23T01:09:06.733Z,0
2019-03-23T01:09:32.842Z,0
2019-03-23T01:09:58.946Z,0
2019-03-23T01:10:25.057Z,0
2019-03-23T01:10:51.162Z,0
2019-03-23T01:11:17.274Z,0
2019-03-23T01:11:43.405Z,0
2019-03-23T01:12:09.519Z,0
2019-03-23T01:12:35.630Z,0
2019-03-23T01:13:01.796Z,0
2019-03-23T01:13:27.905Z,0
2019-03-23T01:13:54.017Z,0
2019-03-23T01:14:20.122Z,0
2019-03-23T01:14:46.237Z,0
2019-03-23T01:15:12.349Z,0
2019-03-23T01:15:38.467Z,0
2019-03-23T01:16:04.586Z,0
2019-03-23T01:16:30.699Z,0
2019-03-23T01:16:56.834Z,0
2019-03-23T01:17:22.942Z,0
2019-03-23T01:17:49.043Z,0
2019-03-23T01:18:15.184Z,0
2019-03-23T01:18:41.321Z,0
2019-03-23T01:19:07.424Z,0
2019-03-23T01:19:33.532Z,0
2019-03-23T01:19:59.667Z,0
2019-03-23T01:20:25.776Z,0
2019-03-23T01:20:52.896Z,0
2019-03-23T01:21:19.058Z,0
2019-03-23T01:21:45.169Z,0
2019-03-23T01:22:11.277Z,0
2019-03-23T01:22:37.391Z,0
2019-03-23T01:23:03.491Z,0
2019-03-23T01:23:29.602Z,0
2019-03-23T01:23:55.741Z,0
2019-03-23T01:24:21.848Z,0
2019-03-23T01:24:47.961Z,0
2019-03-23T01:25:14.061Z,0
2019-03-23T01:25:41.161Z,0
2019-03-23T01:26:07.341Z,0
2019-03-23T01:26:33.499Z,0
2019-03-23T01:26:59.601Z,0
2019-03-23T01:27:25.717Z,0
2019-03-23T01:27:51.826Z,0
2019-03-23T01:28:17.961Z,0
2019-03-23T01:28:44.099Z,0
2019-03-23T01:29:10.205Z,0
2019-03-23T01:29:36.313Z,0
2019-03-23T01:30:02.423Z,0
2019-03-23T01:30:28.556Z,0
2019-03-23T01:30:54.698Z,0
2019-03-23T01:31:20.803Z,0
2019-03-23T01:31:46.906Z,0
2019-03-23T01:32:13.018Z,0
2019-03-23T01:32:39.119Z,0
2019-03-23T01:33:05.232Z,0
2019-03-23T01:33:31.369Z,0
2019-03-23T01:33:57.505Z,0
2019-03-23T01:34:23.617Z,0
2019-03-23T01:34:49.730Z,0
2019-03-23T01:35:15.927Z,0
2019-03-23T01:35:42.036Z,0
2019-03-23T01:36:08.178Z,0
2019-03-23T01:36:34.288Z,0
2019-03-23T01:37:02.832Z,0
2019-03-23T01:37:28.489Z,0
2019-03-23T01:37:54.599Z,0
2019-03-23T01:38:20.738Z,0
2019-03-23T01:38:46.874Z,0
2019-03-23T01:39:13.009Z,0
2019-03-23T01:39:39.122Z,0
2019-03-23T01:40:05.264Z,0
2019-03-23T01:40:31.374Z,0
2019-03-23T01:40:57.480Z,0
2019-03-23T01:41:23.621Z,0
2019-03-23T01:41:49.724Z,0
2019-03-23T01:42:15.827Z,0
2019-03-23T01:42:41.945Z,0
2019-03-23T01:43:08.077Z,0
2019-03-23T01:43:34.187Z,0
2019-03-23T01:44:00.295Z,0
2019-03-23T01:44:26.403Z,0
2019-03-23T01:44:52.511Z,0
2019-03-23T01:45:18.627Z,0
2019-03-23T01:45:44.729Z,0
2019-03-23T01:46:10.900Z,0
2019-03-23T01:46:37.029Z,0
2019-03-23T01:47:03.132Z,0
2019-03-23T01:47:29.243Z,0
2019-03-23T01:47:55.395Z,0
2019-03-23T01:48:21.497Z,0
2019-03-23T01:48:47.610Z,0
2019-03-23T01:49:13.717Z,0
2019-03-23T01:49:39.836Z,0
2019-03-23T01:50:05.977Z,0
2019-03-23T01:50:32.107Z,0
2019-03-23T01:50:58.215Z,0
2019-03-23T01:51:24.326Z,0
2019-03-23T01:51:50.465Z,0
2019-03-23T01:52:16.580Z,0
2019-03-23T01:52:42.698Z,0
2019-03-23T01:53:08.803Z,0
2019-03-23T01:53:34.915Z,0
2019-03-23T01:54:01.054Z,0
2019-03-23T01:54:27.158Z,0
2019-03-23T01:54:53.268Z,0
2019-03-23T01:55:19.380Z,0
2019-03-23T01:55:45.491Z,0
2019-03-23T01:56:11.605Z,0
2019-03-23T01:56:37.745Z,0
2019-03-23T01:57:03.858Z,0
2019-03-23T01:57:29.961Z,0
2019-03-23T01:57:56.072Z,0
2019-03-23T01:58:22.180Z,0
2019-03-23T01:58:48.341Z,0
2019-03-23T01:59:14.452Z,0
2019-03-23T01:59:40.561Z,0
2019-03-23T02:00:06.673Z,0
2019-03-23T02:00:32.790Z,0
2019-03-23T02:00:58.888Z,0
2019-03-23T02:01:24.999Z,0
2019-03-23T02:01:51.132Z,0
2019-03-23T02:02:17.217Z,0
2019-03-23T02:02:43.328Z,0
2019-03-23T02:03:09.433Z,0
2019-03-23T02:03:35.549Z,0
2019-03-23T02:04:01.685Z,0
2019-03-23T02:04:27.794Z,0
2019-03-23T02:04:53.906Z,0
2019-03-23T02:05:20.050Z,0
2019-03-23T02:05:46.154Z,0
2019-03-23T02:06:12.260Z,0
2019-03-23T02:06:38.367Z,0
2019-03-23T02:07:13.327Z,0
2019-03-23T02:07:30.631Z,0
2019-03-23T02:07:56.742Z,0
2019-03-23T02:08:22.847Z,0
2019-03-23T02:08:48.948Z,0
2019-03-23T02:09:15.065Z,0
2019-03-23T02:09:41.174Z,0
2019-03-23T02:10:07.315Z,0
2019-03-23T02:10:33.420Z,0
2019-03-23T02:10:59.526Z,0
2019-03-23T02:11:25.638Z,0
2019-03-23T02:11:51.745Z,0
2019-03-23T02:12:17.857Z,0
2019-03-23T02:12:43.979Z,0
2019-03-23T02:13:10.088Z,0
2019-03-23T02:13:36.194Z,0
2019-03-23T02:14:02.329Z,0
2019-03-23T02:14:28.459Z,0
2019-03-23T02:14:54.603Z,0
2019-03-23T02:15:20.706Z,0
2019-03-23T02:15:46.842Z,0
2019-03-23T02:16:12.950Z,0
2019-03-23T02:16:39.062Z,0
2019-03-23T02:17:05.163Z,0
2019-03-23T02:17:31.272Z,0
2019-03-23T02:17:57.375Z,0
2019-03-23T02:18:23.482Z,0
2019-03-23T02:18:49.592Z,0
2019-03-23T02:19:15.700Z,0
2019-03-23T02:19:41.858Z,0
2019-03-23T02:20:07.972Z,0
2019-03-23T02:20:34.077Z,0
2019-03-23T02:21:00.185Z,0
2019-03-23T02:21:26.298Z,0
2019-03-23T02:21:52.402Z,0
2019-03-23T02:22:18.510Z,0
2019-03-23T02:22:44.618Z,0
2019-03-23T02:23:10.728Z,0
2019-03-23T02:23:36.838Z,0
2019-03-23T02:24:02.943Z,0
2019-03-23T02:24:29.050Z,0
2019-03-23T02:24:55.162Z,0
2019-03-23T02:25:21.268Z,0
2019-03-23T02:25:47.370Z,0
2019-03-23T02:26:13.480Z,0
2019-03-23T02:26:39.586Z,0
2019-03-23T02:27:05.698Z,0
2019-03-23T02:27:31.824Z,0
2019-03-23T02:27:57.930Z,0
2019-03-23T02:28:24.039Z,0
2019-03-23T02:28:50.145Z,0
2019-03-23T02:29:16.254Z,0
2019-03-23T02:29:42.358Z,0
2019-03-23T02:30:08.498Z,0
2019-03-23T02:30:34.668Z,0
2019-03-23T02:31:00.803Z,0
2019-03-23T02:31:27.906Z,0
2019-03-23T02:31:54.041Z,0
2019-03-23T02:32:20.172Z,0
2019-03-23T02:32:46.306Z,0
2019-03-23T02:33:12.475Z,0
2019-03-23T02:33:38.612Z,0
2019-03-23T02:34:04.758Z,0
2019-03-23T02:34:30.893Z,0
2019-03-23T02:34:57.063Z,0
2019-03-23T02:35:23.254Z,0
2019-03-23T02:35:49.363Z,0
2019-03-23T02:36:15.526Z,0
2019-03-23T02:36:41.731Z,0
2019-03-23T02:37:07.865Z,0
2019-03-23T02:37:35.953Z,0
2019-03-23T02:38:02.063Z,0
2019-03-23T02:38:28.230Z,0
2019-03-23T02:38:54.332Z,0
2019-03-23T02:39:20.496Z,0
2019-03-23T02:39:46.632Z,0
2019-03-23T02:40:12.755Z,0
2019-03-23T02:40:38.886Z,0
2019-03-23T02:41:04.995Z,0
2019-03-23T02:41:31.125Z,0
2019-03-23T02:41:57.266Z,0
2019-03-23T02:42:23.371Z,0
2019-03-23T02:42:49.507Z,0
2019-03-23T02:43:15.674Z,0
2019-03-23T02:43:41.818Z,0
2019-03-23T02:44:07.948Z,0
2019-03-23T02:44:34.084Z,0
2019-03-23T02:45:00.304Z,0
2019-03-23T02:45:26.457Z,0
2019-03-23T02:45:52.590Z,0
2019-03-23T02:46:18.697Z,0
2019-03-23T02:46:44.864Z,0
2019-03-23T02:47:11.046Z,0
2019-03-23T02:47:37.191Z,0
2019-03-23T02:48:03.303Z,0
2019-03-23T02:48:29.410Z,0
2019-03-23T02:48:55.520Z,0
2019-03-23T02:49:21.656Z,0
2019-03-23T02:49:47.827Z,0
2019-03-23T02:50:13.955Z,0
2019-03-23T02:50:40.120Z,0
2019-03-23T02:51:06.229Z,0
2019-03-23T02:51:32.349Z,0
2019-03-23T02:51:59.430Z,0
2019-03-23T02:52:25.568Z,0
2019-03-23T02:52:51.698Z,0
2019-03-23T02:53:17.843Z,0
2019-03-23T02:53:43.952Z,0
2019-03-23T02:54:10.063Z,0
2019-03-23T02:54:36.195Z,0
2019-03-23T02:55:02.370Z,0
2019-03-23T02:55:28.525Z,0
2019-03-23T02:55:54.660Z,0
2019-03-23T02:56:20.794Z,0
2019-03-23T02:56:46.940Z,0
2019-03-23T02:57:13.051Z,0
2019-03-23T02:57:39.209Z,0
2019-03-23T02:58:05.353Z,0
2019-03-23T02:58:31.556Z,0
2019-03-23T02:58:57.684Z,0
2019-03-23T02:59:23.822Z,0
2019-03-23T02:59:49.927Z,0
2019-03-23T03:00:16.084Z,0
2019-03-23T03:00:42.249Z,0
2019-03-23T03:01:08.378Z,0
2019-03-23T03:01:34.518Z,0
2019-03-23T03:02:00.626Z,0
2019-03-23T03:02:26.747Z,0
2019-03-23T03:02:52.874Z,0
2019-03-23T03:03:19.068Z,0
2019-03-23T03:03:45.173Z,0
2019-03-23T03:04:11.282Z,0
2019-03-23T03:04:37.395Z,0
2019-03-23T03:05:03.501Z,0
2019-03-23T03:05:29.676Z,0
2019-03-23T03:05:55.841Z,0
2019-03-23T03:06:21.977Z,0
2019-03-23T03:06:48.173Z,0
2019-03-23T03:07:14.330Z,0
2019-03-23T03:07:43.668Z,0
2019-03-23T03:08:09.528Z,0
2019-03-23T03:08:35.634Z,0
2019-03-23T03:09:01.752Z,0
2019-03-23T03:09:27.873Z,0
2019-03-23T03:09:53.985Z,0
2019-03-23T03:10:20.149Z,0
2019-03-23T03:10:46.312Z,0
2019-03-23T03:11:12.448Z,0
2019-03-23T03:11:38.582Z,0
2019-03-23T03:12:04.718Z,0
2019-03-23T03:12:30.830Z,0
2019-03-23T03:12:56.930Z,0
2019-03-23T03:13:23.042Z,0
2019-03-23T03:13:49.169Z,0
2019-03-23T03:14:15.280Z,0
2019-03-23T03:14:41.437Z,0
2019-03-23T03:15:07.544Z,0
2019-03-23T03:15:33.664Z,0
2019-03-23T03:15:59.766Z,0
2019-03-23T03:16:25.906Z,0
2019-03-23T03:16:52.072Z,0
2019-03-23T03:17:18.265Z,0
2019-03-23T03:17:44.397Z,0
2019-03-23T03:18:10.503Z,0
2019-03-23T03:18:36.625Z,0
2019-03-23T03:19:02.810Z,0
2019-03-23T03:19:28.968Z,0
2019-03-23T03:19:55.103Z,0
2019-03-23T03:20:21.208Z,0
2019-03-23T03:20:47.370Z,0
2019-03-23T03:21:13.462Z,0
2019-03-23T03:21:39.660Z,0
2019-03-23T03:22:05.746Z,0
2019-03-23T03:22:31.903Z,0
2019-03-23T03:22:58.075Z,0
2019-03-23T03:23:24.185Z,0
2019-03-23T03:23:50.319Z,0
2019-03-23T03:24:16.456Z,0
2019-03-23T03:24:42.566Z,0
2019-03-23T03:25:08.674Z,0
2019-03-23T03:25:34.788Z,0
2019-03-23T03:26:00.942Z,0
2019-03-23T03:26:27.061Z,0
2019-03-23T03:26:53.199Z,0
2019-03-23T03:27:19.359Z,0
2019-03-23T03:27:45.502Z,0
2019-03-23T03:28:11.663Z,0
2019-03-23T03:28:37.771Z,0
2019-03-23T03:29:03.907Z,0
2019-03-23T03:29:30.044Z,0
2019-03-23T03:29:56.193Z,0
2019-03-23T03:30:22.326Z,0
2019-03-23T03:30:48.471Z,0
2019-03-23T03:31:14.643Z,0
2019-03-23T03:31:40.777Z,0
2019-03-23T03:32:06.909Z,0
2019-03-23T03:32:33.014Z,0
2019-03-23T03:32:59.183Z,0
2019-03-23T03:33:25.367Z,0
2019-03-23T03:33:51.554Z,0
2019-03-23T03:34:17.718Z,0
2019-03-23T03:34:43.851Z,0
2019-03-23T03:35:09.987Z,0
2019-03-23T03:35:36.117Z,0
2019-03-23T03:36:02.251Z,0
2019-03-23T03:36:30.023Z,0
2019-03-23T03:36:55.458Z,0
2019-03-23T03:37:21.613Z,0
2019-03-23T03:37:56.206Z,0
2019-03-23T03:38:16.823Z,0
2019-03-23T03:38:42.989Z,0
2019-03-23T03:39:09.092Z,0
2019-03-23T03:39:35.202Z,0
2019-03-23T03:40:01.312Z,0
2019-03-23T03:40:27.472Z,0
2019-03-23T03:40:53.607Z,0
2019-03-23T03:41:19.754Z,0
2019-03-23T03:41:45.919Z,0
2019-03-23T03:42:12.030Z,0
2019-03-23T03:42:38.193Z,0
2019-03-23T03:43:04.360Z,0
2019-03-23T03:43:30.466Z,0
2019-03-23T03:43:56.637Z,0
2019-03-23T03:44:22.779Z,0
2019-03-23T03:44:48.907Z,0
2019-03-23T03:45:15.076Z,0
2019-03-23T03:45:41.214Z,0
2019-03-23T03:46:07.357Z,0
2019-03-23T03:46:33.495Z,0
2019-03-23T03:46:59.657Z,0
2019-03-23T03:47:25.765Z,0
2019-03-23T03:47:51.898Z,0
2019-03-23T03:48:18.027Z,0
2019-03-23T03:48:44.132Z,0
2019-03-23T03:49:12.531Z,0
2019-03-23T03:49:38.379Z,0
2019-03-23T03:50:04.525Z,0
2019-03-23T03:50:30.695Z,0
2019-03-23T03:50:56.789Z,0
2019-03-23T03:51:22.922Z,0
2019-03-23T03:51:49.036Z,0
2019-03-23T03:52:15.195Z,0
2019-03-23T03:52:41.333Z,0
2019-03-23T03:53:07.478Z,0
2019-03-23T03:53:33.668Z,0
2019-03-23T03:53:59.815Z,0
2019-03-23T03:54:25.948Z,0
2019-03-23T03:54:52.085Z,0
2019-03-23T03:55:18.186Z,0
2019-03-23T03:55:44.350Z,0
2019-03-23T03:56:10.488Z,0
2019-03-23T03:56:36.595Z,0
2019-03-23T03:57:02.690Z,0
2019-03-23T03:57:28.835Z,0
2019-03-23T03:57:55.005Z,0
2019-03-23T03:58:21.109Z,0
2019-03-23T03:58:47.245Z,0
2019-03-23T03:59:13.360Z,0
2019-03-23T03:59:39.490Z,0
2019-03-23T04:00:05.769Z,0
2019-03-23T04:00:31.877Z,0
2019-03-23T04:00:58.040Z,0
2019-03-23T04:01:24.154Z,0
2019-03-23T04:01:50.289Z,0
2019-03-23T04:02:16.427Z,0
2019-03-23T04:02:42.543Z,0
2019-03-23T04:03:08.646Z,0
2019-03-23T04:03:34.757Z,0
2019-03-23T04:04:00.871Z,0
2019-03-23T04:04:27.038Z,0
2019-03-23T04:04:53.228Z,0
2019-03-23T04:05:19.404Z,0
2019-03-23T04:05:45.504Z,0
2019-03-23T04:06:11.642Z,0
2019-03-23T04:06:37.777Z,0
2019-03-23T04:07:03.914Z,0
2019-03-23T04:07:30.039Z,0
2019-03-23T04:08:09.757Z,0
2019-03-23T04:08:24.278Z,0
2019-03-23T04:08:50.396Z,0
2019-03-23T04:09:16.501Z,0
2019-03-23T04:09:42.647Z,0
2019-03-23T04:10:08.730Z,0
2019-03-23T04:10:34.891Z,0
2019-03-23T04:11:01.053Z,0
2019-03-23T04:11:27.263Z,0
2019-03-23T04:11:53.378Z,0
2019-03-23T04:12:19.486Z,0
2019-03-23T04:12:45.629Z,0
2019-03-23T04:13:11.790Z,0
2019-03-23T04:13:37.893Z,0
2019-03-23T04:14:04.634Z,0
2019-03-23T04:14:30.844Z,0
2019-03-23T04:14:57.299Z,0
2019-03-23T04:15:23.413Z,0
2019-03-23T04:15:49.718Z,0
2019-03-23T04:16:16.021Z,0
2019-03-23T04:16:42.416Z,0
2019-03-23T04:17:09.089Z,0
2019-03-23T04:17:35.381Z,0
2019-03-23T04:18:01.681Z,0
2019-03-23T04:18:27.835Z,0
2019-03-23T04:18:53.946Z,0
2019-03-23T04:19:20.718Z,0
2019-03-23T04:19:47.286Z,0
2019-03-23T04:20:13.583Z,0
2019-03-23T04:20:39.990Z,0
2019-03-23T04:21:06.288Z,0
2019-03-23T04:21:32.606Z,0
2019-03-23T04:21:58.830Z,0
2019-03-23T04:22:25.642Z,0
2019-03-23T04:22:52.132Z,0
2019-03-23T04:23:18.574Z,0
2019-03-23T04:23:45.172Z,0
2019-03-23T04:24:11.358Z,0
2019-03-23T04:24:37.804Z,0
2019-03-23T04:25:04.004Z,0
2019-03-23T04:25:30.480Z,0
2019-03-23T04:25:57.086Z,0
2019-03-23T04:26:23.820Z,0
2019-03-23T04:26:49.990Z,0
2019-03-23T04:27:16.203Z,0
2019-03-23T04:27:42.592Z,0
2019-03-23T04:28:09.428Z,0
2019-03-23T04:28:35.737Z,0
2019-03-23T04:29:01.889Z,0
2019-03-23T04:29:28.521Z,0
2019-03-23T04:29:54.825Z,0
2019-03-23T04:30:21.299Z,0
2019-03-23T04:30:47.890Z,0
2019-03-23T04:31:14.065Z,0
2019-03-23T04:31:40.264Z,0
2019-03-23T04:32:07.644Z,0
2019-03-23T04:32:33.740Z,0
2019-03-23T04:32:59.924Z,0
2019-03-23T04:33:26.122Z,0
2019-03-23T04:33:52.260Z,0
2019-03-23T04:34:18.696Z,0
2019-03-23T04:34:45.093Z,0
2019-03-23T04:35:12.149Z,0
2019-03-23T04:35:38.621Z,0
2019-03-23T04:36:04.745Z,0
2019-03-23T04:36:31.041Z,0
2019-03-23T04:36:57.846Z,0
2019-03-23T04:37:24.062Z,0
2019-03-23T04:37:50.233Z,0
2019-03-23T04:38:22.446Z,0
2019-03-23T04:38:43.950Z,0
2019-03-23T04:39:10.313Z,0
2019-03-23T04:39:36.904Z,0
2019-03-23T04:40:03.876Z,0
2019-03-23T04:40:30.081Z,0
2019-03-23T04:40:56.255Z,0
2019-03-23T04:41:22.508Z,0
2019-03-23T04:41:48.762Z,0
2019-03-23T04:42:14.990Z,0
2019-03-23T04:42:41.511Z,0
2019-03-23T04:43:07.672Z,0
2019-03-23T04:43:33.785Z,0
2019-03-23T04:44:00.241Z,0
2019-03-23T04:44:26.486Z,0
2019-03-23T04:44:53.412Z,0
2019-03-23T04:45:19.665Z,0
2019-03-23T04:45:45.777Z,0
2019-03-23T04:46:11.894Z,0
2019-03-23T04:46:38.429Z,0
2019-03-23T04:47:05.993Z,0
2019-03-23T04:47:32.476Z,0
2019-03-23T04:47:58.730Z,0
2019-03-23T04:48:25.275Z,0
2019-03-23T04:48:52.255Z,0
2019-03-23T04:49:18.352Z,0
2019-03-23T04:49:44.825Z,0
2019-03-23T04:50:11.389Z,0
2019-03-23T04:50:37.986Z,0
2019-03-23T04:51:04.084Z,0
2019-03-23T04:51:30.360Z,0
2019-03-23T04:51:56.652Z,0
2019-03-23T04:52:23.055Z,0
2019-03-23T04:52:49.350Z,0
2019-03-23T04:53:16.093Z,0
2019-03-23T04:53:42.614Z,0
2019-03-23T04:54:09.398Z,0
2019-03-23T04:54:35.818Z,0
2019-03-23T04:55:02.757Z,0
2019-03-23T04:55:29.452Z,0
2019-03-23T04:55:55.529Z,0
2019-03-23T04:56:21.642Z,0
2019-03-23T04:56:47.790Z,4
2019-03-23T04:57:13.929Z,4
2019-03-23T04:57:40.042Z,4
2019-03-23T04:58:06.183Z,4
2019-03-23T04:58:32.293Z,0
2019-03-23T04:58:58.395Z,0
2019-03-23T04:59:24.529Z,0
2019-03-23T04:59:50.640Z,0
2019-03-23T05:00:16.756Z,0
2019-03-23T05:00:42.859Z,4
2019-03-23T05:01:09.059Z,4
2019-03-23T05:01:35.167Z,4
2019-03-23T05:02:01.271Z,4
2019-03-23T05:02:27.387Z,0
2019-03-23T05:02:53.516Z,4
2019-03-23T05:03:19.620Z,4
2019-03-23T05:03:45.772Z,4
2019-03-23T05:04:11.882Z,4
2019-03-23T05:04:38.017Z,4
2019-03-23T05:05:04.126Z,4
2019-03-23T05:05:30.231Z,4
2019-03-23T05:05:56.340Z,8
2019-03-23T05:06:22.478Z,8
2019-03-23T05:06:48.607Z,8
2019-03-23T05:07:14.737Z,4
2019-03-23T05:07:40.885Z,8
2019-03-23T05:08:07.021Z,8
2019-03-23T05:08:35.111Z,8
2019-03-23T05:09:01.249Z,12
2019-03-23T05:09:27.357Z,12
2019-03-23T05:09:53.483Z,12
2019-03-23T05:10:19.595Z,12
2019-03-23T05:10:45.702Z,16
2019-03-23T05:11:11.820Z,16
2019-03-23T05:11:37.935Z,20
2019-03-23T05:12:04.071Z,20
2019-03-23T05:12:30.174Z,20
2019-03-23T05:12:56.282Z,20
2019-03-23T05:13:22.424Z,20
2019-03-23T05:13:48.538Z,24
2019-03-23T05:14:14.676Z,24
2019-03-23T05:14:40.784Z,28
2019-03-23T05:15:06.884Z,32
2019-03-23T05:15:32.998Z,32
2019-03-23T05:15:59.104Z,36
2019-03-23T05:16:25.214Z,40
2019-03-23T05:16:51.317Z,44
2019-03-23T05:17:17.425Z,44
2019-03-23T05:17:43.537Z,44
2019-03-23T05:18:09.700Z,48
2019-03-23T05:18:35.807Z,48
2019-03-23T05:19:01.918Z,52
2019-03-23T05:19:28.034Z,48
2019-03-23T05:19:54.137Z,48
2019-03-23T05:20:20.249Z,48
2019-03-23T05:20:46.361Z,56
2019-03-23T05:21:12.469Z,52
2019-03-23T05:21:38.604Z,56
2019-03-23T05:22:04.713Z,60
2019-03-23T05:22:30.856Z,68
2019-03-23T05:22:56.967Z,72
2019-03-23T05:23:23.069Z,72
2019-03-23T05:23:50.163Z,72
2019-03-23T05:24:16.275Z,72
2019-03-23T05:24:42.380Z,72
2019-03-23T05:25:08.483Z,72
2019-03-23T05:25:34.596Z,72
2019-03-23T05:26:00.703Z,72
2019-03-23T05:26:26.813Z,76
2019-03-23T05:26:52.925Z,80
2019-03-23T05:27:19.024Z,84
2019-03-23T05:27:45.135Z,88
2019-03-23T05:28:11.241Z,92
2019-03-23T05:28:37.351Z,96
2019-03-23T05:29:03.460Z,104
2019-03-23T05:29:29.571Z,104
2019-03-23T05:29:55.673Z,108
2019-03-23T05:30:21.812Z,108
2019-03-23T05:30:47.927Z,112
2019-03-23T05:31:14.033Z,116
2019-03-23T05:31:40.142Z,124
2019-03-23T05:32:06.277Z,128
2019-03-23T05:32:32.382Z,132
2019-03-23T05:32:58.490Z,136
2019-03-23T05:33:24.601Z,140
2019-03-23T05:33:50.738Z,140
2019-03-23T05:34:16.843Z,148
2019-03-23T05:34:42.949Z,148
2019-03-23T05:35:09.082Z,152
2019-03-23T05:35:35.192Z,156
2019-03-23T05:36:01.297Z,160
2019-03-23T05:36:27.401Z,164
2019-03-23T05:36:53.533Z,168
2019-03-23T05:37:19.644Z,172
2019-03-23T05:37:45.752Z,176
2019-03-23T05:38:11.856Z,184
2019-03-23T05:38:44.135Z,184
2019-03-23T05:39:06.089Z,196
2019-03-23T05:39:32.193Z,208
2019-03-23T05:39:58.311Z,224
2019-03-23T05:40:24.425Z,232
2019-03-23T05:40:50.533Z,240
2019-03-23T05:41:16.629Z,240
2019-03-23T05:41:42.732Z,248
2019-03-23T05:42:08.843Z,256
2019-03-23T05:42:34.978Z,260
2019-03-23T05:43:01.093Z,264
2019-03-23T05:43:27.231Z,268
2019-03-23T05:43:53.337Z,280
2019-03-23T05:44:19.447Z,292
2019-03-23T05:44:45.552Z,304
2019-03-23T05:45:11.661Z,316
2019-03-23T05:45:37.802Z,332
2019-03-23T05:46:03.903Z,344
2019-03-23T05:46:30.020Z,356
2019-03-23T05:46:56.126Z,368
2019-03-23T05:47:22.258Z,380
2019-03-23T05:47:48.371Z,396
2019-03-23T05:48:14.477Z,404
2019-03-23T05:48:40.587Z,408
2019-03-23T05:49:06.726Z,412
2019-03-23T05:49:32.864Z,412
2019-03-23T05:49:58.978Z,416
2019-03-23T05:50:25.120Z,424
2019-03-23T05:50:51.226Z,436
2019-03-23T05:51:17.329Z,456
2019-03-23T05:51:43.431Z,464
2019-03-23T05:52:10.533Z,468
2019-03-23T05:52:36.641Z,480
2019-03-23T05:53:02.778Z,488
2019-03-23T05:53:28.884Z,484
2019-03-23T05:53:55.000Z,484
2019-03-23T05:54:21.108Z,488
2019-03-23T05:54:47.245Z,500
2019-03-23T05:55:13.381Z,512
2019-03-23T05:55:39.492Z,516
2019-03-23T05:56:05.604Z,524
2019-03-23T05:56:31.741Z,520
2019-03-23T05:56:57.849Z,516
2019-03-23T05:57:24.948Z,504
2019-03-23T05:57:51.073Z,496
2019-03-23T05:58:17.210Z,488
2019-03-23T05:58:43.317Z,492
2019-03-23T05:59:09.426Z,500
2019-03-23T05:59:35.532Z,508
2019-03-23T06:00:01.637Z,524
2019-03-23T06:00:27.741Z,540
2019-03-23T06:00:53.852Z,552
2019-03-23T06:01:19.996Z,568
2019-03-23T06:01:46.101Z,584
2019-03-23T06:02:12.214Z,588
2019-03-23T06:02:38.317Z,584
2019-03-23T06:03:04.424Z,572
2019-03-23T06:03:30.533Z,576
2019-03-23T06:03:56.666Z,580
2019-03-23T06:04:22.801Z,592
2019-03-23T06:04:48.918Z,608
2019-03-23T06:05:15.025Z,612
2019-03-23T06:05:41.160Z,620
2019-03-23T06:06:07.271Z,628
2019-03-23T06:06:33.382Z,636
2019-03-23T06:06:59.491Z,644
2019-03-23T06:07:25.601Z,660
2019-03-23T06:07:51.709Z,700
2019-03-23T06:08:17.822Z,720
2019-03-23T06:08:54.160Z,720
2019-03-23T06:09:12.017Z,720
2019-03-23T06:09:38.128Z,732
2019-03-23T06:10:04.240Z,748
2019-03-23T06:10:30.350Z,776
2019-03-23T06:10:56.513Z,812
2019-03-23T06:11:22.567Z,832
2019-03-23T06:11:48.674Z,840
2019-03-23T06:12:14.789Z,828
2019-03-23T06:12:40.890Z,812
2019-03-23T06:13:07.001Z,804
2019-03-23T06:13:33.134Z,796
2019-03-23T06:13:59.242Z,800
2019-03-23T06:14:25.346Z,800
2019-03-23T06:14:51.485Z,800
2019-03-23T06:15:17.625Z,804
2019-03-23T06:15:43.765Z,812
2019-03-23T06:16:09.896Z,828
2019-03-23T06:16:36.007Z,840
2019-03-23T06:17:02.138Z,860
2019-03-23T06:17:28.275Z,880
2019-03-23T06:17:54.385Z,892
2019-03-23T06:18:20.517Z,916
2019-03-23T06:18:46.621Z,968
2019-03-23T06:19:12.733Z,1020
2019-03-23T06:19:38.841Z,1024
2019-03-23T06:20:04.972Z,1000
2019-03-23T06:20:31.086Z,968
2019-03-23T06:20:57.210Z,940
2019-03-23T06:21:23.321Z,920
2019-03-23T06:21:49.429Z,920
2019-03-23T06:22:15.539Z,928
2019-03-23T06:22:41.651Z,944